Time;durP1;ratioP1;P1;durP2;ratioP2;P2;SDS_P1;SDS_P2;PMS_P1;PMS_P2;Temp;Humidity;BMP_temperature;BMP_pressure;BME280_temperature;BME280_humidity;BME280_pressure;Samples;Min_cycle;Max_cycle;Signal;HPM_P1;HPM_P2
2021/12/06 00:00:28;;;;;;;43.20;26.13;;;;;;;2.16;100.00;101084.44;6218176;23;20094;-62
2021/12/06 00:02:56;;;;;;;49.75;29.88;;;;;;;2.20;100.00;101089.72;6218034;23;20079;-61
2021/12/06 00:05:23;;;;;;;54.72;30.38;;;;;;;2.24;100.00;101085.53;6218093;23;20098;-62
2021/12/06 00:07:49;;;;;;;49.58;30.15;;;;;;;2.23;100.00;101076.91;6217722;23;20376;-62
2021/12/06 00:10:15;;;;;;;44.85;27.90;;;;;;;2.31;100.00;101089.97;6217924;23;20036;-62
2021/12/06 00:12:42;;;;;;;46.50;28.55;;;;;;;2.34;100.00;101085.75;6218407;23;20128;-62
2021/12/06 00:15:09;;;;;;;42.97;27.08;;;;;;;2.38;100.00;101089.31;6218142;23;20036;-62
2021/12/06 00:17:34;;;;;;;44.35;26.70;;;;;;;2.39;100.00;101089.34;6218476;23;20001;-62
2021/12/06 00:19:59;;;;;;;45.03;26.75;;;;;;;2.45;100.00;101089.47;6217581;23;20016;-62
2021/12/06 00:22:25;;;;;;;42.55;26.30;;;;;;;2.49;100.00;101099.88;6218281;23;20028;-62
2021/12/06 00:24:55;;;;;;;43.25;24.92;;;;;;;2.50;100.00;101106.78;6217494;23;20036;-62
2021/12/06 00:27:22;;;;;;;41.28;26.27;;;;;;;2.45;100.00;101099.78;6216804;23;20012;-62
2021/12/06 00:29:48;;;;;;;41.65;24.95;;;;;;;2.51;100.00;101111.13;6218071;23;20008;-62
2021/12/06 00:32:14;;;;;;;40.00;25.85;;;;;;;2.47;100.00;101106.69;6217992;23;20075;-62
2021/12/06 00:34:41;;;;;;;43.08;26.90;;;;;;;2.58;100.00;101107.84;6218085;23;20422;-62
2021/12/06 00:37:30;;;;;;;46.95;27.95;;;;;;;2.59;100.00;101112.19;6217934;23;20005;-64
2021/12/06 00:40:02;;;;;;;42.97;24.90;;;;;;;2.61;100.00;101120.81;6218251;23;20023;-62
2021/12/06 00:42:31;;;;;;;40.90;25.45;;;;;;;2.65;100.00;101120.91;6217361;23;20406;-62
2021/12/06 00:44:57;;;;;;;39.15;25.90;;;;;;;2.62;100.00;101118.25;6218580;23;20005;-62
2021/12/06 00:47:22;;;;;;;42.30;25.65;;;;;;;2.66;100.00;101129.53;6217827;23;20004;-62
2021/12/06 00:49:47;;;;;;;40.03;24.73;;;;;;;2.66;100.00;101138.19;6217680;23;20001;-63
2021/12/06 00:52:14;;;;;;;40.47;25.30;;;;;;;2.67;100.00;101134.75;6217523;23;20001;-62
2021/12/06 00:54:40;;;;;;;39.65;25.25;;;;;;;2.67;100.00;101144.22;6217811;23;20008;-62
2021/12/06 00:57:07;;;;;;;42.03;25.42;;;;;;;2.65;100.00;101133.84;6217758;23;20075;-62
2021/12/06 00:59:34;;;;;;;40.53;25.58;;;;;;;2.67;100.00;101147.66;6217617;23;20081;-62
2021/12/06 01:02:02;;;;;;;40.08;25.75;;;;;;;2.65;100.00;101151.06;6217838;23;20055;-62
2021/12/06 01:04:29;;;;;;;44.50;26.23;;;;;;;2.68;100.00;101157.16;6218409;23;20009;-62
2021/12/06 01:06:55;;;;;;;43.85;26.77;;;;;;;2.66;100.00;101156.25;6217820;23;20158;-62
2021/12/06 01:09:20;;;;;;;43.53;26.13;;;;;;;2.69;100.00;101161.50;6217726;23;20040;-63
2021/12/06 01:11:46;;;;;;;41.50;25.65;;;;;;;2.68;100.00;101166.63;6217705;23;20001;-62
2021/12/06 01:14:11;;;;;;;47.45;28.95;;;;;;;2.73;100.00;101171.06;6217594;23;20036;-62
2021/12/06 01:16:37;;;;;;;48.85;29.27;;;;;;;2.72;100.00;101164.16;6217194;23;20019;-62
2021/12/06 01:19:03;;;;;;;48.85;30.38;;;;;;;2.76;100.00;101168.56;6216943;23;20087;-62
2021/12/06 01:21:45;;;;;;;52.65;30.40;;;;;;;2.76;100.00;101168.56;6217515;23;20011;-62
2021/12/06 01:24:12;;;;;;;48.85;30.00;;;;;;;2.78;100.00;101171.16;6217903;23;20008;-62
2021/12/06 01:29:26;;;;;;;49.70;29.58;;;;;;;2.78;100.00;101178.91;6227765;23;20394;-62
2021/12/06 01:32:17;;;;;;;47.08;28.85;;;;;;;2.74;100.00;101172.81;6217032;23;20472;-62
2021/12/06 01:40:11;;;;;;;51.58;30.52;;;;;;;2.88;100.00;101183.47;6217178;23;20043;-62
2021/12/06 01:42:36;;;;;;;52.25;30.63;;;;;;;2.91;100.00;101186.13;6217745;23;20013;-62
2021/12/06 01:45:03;;;;;;;50.10;29.17;;;;;;;2.94;100.00;101180.19;6217019;23;20096;-62
2021/12/06 01:47:36;;;;;;;53.50;29.67;;;;;;;2.96;100.00;101194.84;6217326;23;20012;-62
2021/12/06 01:50:13;;;;;;;44.83;29.60;;;;;;;2.89;100.00;101185.22;6217389;23;20043;-62
2021/12/06 01:52:42;;;;;;;48.17;28.92;;;;;;;2.97;100.00;101201.78;6217380;23;20020;-62
2021/12/06 01:55:10;;;;;;;48.30;28.63;;;;;;;3.00;100.00;101198.38;6217321;23;20008;-62
2021/12/06 01:57:36;;;;;;;45.30;27.48;;;;;;;3.00;100.00;101201.84;6217924;23;20019;-62
2021/12/06 02:00:08;;;;;;;44.33;26.88;;;;;;;3.01;100.00;101210.47;6217464;23;20079;-63
2021/12/06 02:02:33;;;;;;;44.65;27.30;;;;;;;3.00;100.00;101203.56;6218772;23;20306;-62
2021/12/06 02:04:58;;;;;;;43.88;27.02;;;;;;;3.01;100.00;101200.13;6218823;23;20016;-62
2021/12/06 02:07:26;;;;;;;44.90;28.30;;;;;;;3.02;100.00;101201.88;6219083;23;20009;-62
2021/12/06 02:09:54;;;;;;;40.33;26.30;;;;;;;3.02;100.00;101205.34;6218933;23;20517;-63
2021/12/06 02:12:19;;;;;;;40.55;26.02;;;;;;;2.99;100.00;101197.50;6219210;23;20032;-62
2021/12/06 02:14:58;;;;;;;40.50;26.83;;;;;;;3.04;100.00;101206.25;6219210;23;20015;-62
2021/12/06 02:17:32;;;;;;;43.88;26.58;;;;;;;3.03;100.00;101211.38;6218915;23;20001;-64
2021/12/06 02:20:04;;;;;;;44.75;26.65;;;;;;;3.02;100.00;101210.50;6219067;23;20043;-62
2021/12/06 02:22:33;;;;;;;43.15;27.15;;;;;;;2.96;100.00;101201.72;6218871;23;20303;-63
2021/12/06 02:25:00;;;;;;;46.60;27.70;;;;;;;3.01;100.00;101213.94;6219016;23;20079;-62
2021/12/06 02:27:28;;;;;;;45.53;27.92;;;;;;;3.02;100.00;101220.84;6218959;23;20012;-62
2021/12/06 02:29:56;;;;;;;44.05;27.58;;;;;;;2.99;100.00;101220.78;6218901;23;20039;-62
2021/12/06 02:32:21;;;;;;;44.05;27.27;;;;;;;3.01;100.00;101215.66;6218836;23;20043;-63
2021/12/06 02:34:50;;;;;;;48.33;27.48;;;;;;;3.00;100.00;101229.41;6219124;23;20004;-62
2021/12/06 02:37:29;;;;;;;43.20;26.65;;;;;;;3.02;100.00;101227.72;6218875;23;20051;-62
2021/12/06 02:39:54;;;;;;;42.75;27.33;;;;;;;2.98;100.00;101229.38;6218326;23;20406;-62
2021/12/06 02:42:20;;;;;;;43.97;27.33;;;;;;;2.97;100.00;101229.34;6218737;23;20096;-64
2021/12/06 02:44:47;;;;;;;43.08;26.42;;;;;;;2.99;100.00;101241.47;6218709;23;20005;-62
2021/12/06 02:47:14;;;;;;;44.78;27.38;;;;;;;3.00;100.00;101245.78;6218561;23;20000;-62
2021/12/06 02:49:39;;;;;;;46.97;28.23;;;;;;;2.99;100.00;101244.03;6218812;23;20055;-62
2021/12/06 02:52:06;;;;;;;51.25;29.58;;;;;;;2.96;100.00;101240.50;6218686;23;20010;-62
2021/12/06 02:54:32;;;;;;;45.17;28.58;;;;;;;2.96;100.00;101249.13;6218391;23;20360;-62
2021/12/06 02:59:38;;;;;;;50.28;29.80;;;;;;;2.97;100.00;101250.88;6228747;23;20425;-62
2021/12/06 03:02:10;;;;;;;51.53;31.33;;;;;;;2.95;100.00;101257.72;6218170;23;20360;-62
2021/12/06 03:04:36;;;;;;;50.92;29.38;;;;;;;2.98;100.00;101254.34;6218401;23;20414;-63
2021/12/06 03:07:03;;;;;;;49.45;29.85;;;;;;;2.97;100.00;101250.88;6218945;23;20011;-62
2021/12/06 03:09:34;;;;;;;51.92;29.48;;;;;;;2.91;100.00;101249.88;6218325;23;20039;-63
2021/12/06 03:12:06;;;;;;;53.63;30.65;;;;;;;2.93;100.00;101259.44;6218139;23;20306;-62
2021/12/06 03:14:38;;;;;;;51.58;30.65;;;;;;;2.94;100.00;101256.00;6217882;23;20409;-62
2021/12/06 03:17:04;;;;;;;;;;;;;;;2.98;100.00;101255.22;6219058;23;20062;-62
2021/12/06 03:19:30;;;;;;;52.75;29.08;;;;;;;2.96;100.00;101254.31;6218265;23;20196;-63
2021/12/06 03:21:56;;;;;;;55.45;29.42;;;;;;;3.00;100.00;101261.31;6218365;23;20087;-62
2021/12/06 03:24:21;;;;;;;50.35;30.50;;;;;;;2.99;100.00;101256.09;6218445;23;20008;-63
2021/12/06 03:26:48;;;;;;;50.65;30.35;;;;;;;2.98;100.00;101251.75;6218242;23;20314;-63
2021/12/06 03:29:13;;;;;;;56.38;30.92;;;;;;;2.99;100.00;101259.56;6218165;23;20398;-63
2021/12/06 03:31:40;;;;;;;56.90;32.85;;;;;;;2.99;100.00;101254.38;6218194;23;20062;-62
2021/12/06 03:34:07;;;;;;;56.35;31.60;;;;;;;2.96;100.00;101251.72;6218141;23;20004;-62
2021/12/06 03:36:35;;;;;;;52.40;31.73;;;;;;;2.98;100.00;101260.38;6217832;23;20429;-63
2021/12/06 03:39:04;;;;;;;55.30;31.70;;;;;;;2.93;100.00;101256.84;6217966;23;20016;-62
2021/12/06 03:41:30;;;;;;;54.60;31.95;;;;;;;2.90;100.00;101255.88;6218272;23;20036;-62
2021/12/06 03:43:56;;;;;;;55.83;33.22;;;;;;;2.94;100.00;101260.31;6217844;23;20004;-62
2021/12/06 03:46:24;;;;;;;57.97;32.05;;;;;;;2.94;100.00;101268.06;6218437;23;20008;-62
2021/12/06 03:48:49;;;;;;;54.65;31.30;;;;;;;2.93;100.00;101263.72;6218238;23;20005;-62
2021/12/06 03:51:16;;;;;;;57.67;32.38;;;;;;;2.95;100.00;101268.06;6217785;23;20317;-62
2021/12/06 03:53:41;;;;;;;55.60;31.85;;;;;;;2.94;100.00;101265.47;6217886;23;20406;-62
2021/12/06 03:56:07;;;;;;;52.40;30.50;;;;;;;2.96;100.00;101264.66;6217674;23;20004;-62
2021/12/06 03:58:34;;;;;;;56.85;31.70;;;;;;;2.95;100.00;101260.31;6218137;23;20008;-62
2021/12/06 04:01:02;;;;;;;55.72;32.53;;;;;;;2.94;100.00;101258.59;6218313;23;20016;-62
2021/12/06 04:03:29;;;;;;;59.50;33.60;;;;;;;2.96;100.00;101262.06;6218189;23;20004;-62
2021/12/06 04:05:55;;;;;;;56.10;32.05;;;;;;;2.94;100.00;101260.31;6217389;23;20005;-63
2021/12/06 04:08:20;;;;;;;56.40;32.17;;;;;;;2.95;100.00;101268.06;6217930;23;20004;-62
2021/12/06 04:10:46;;;;;;;51.80;31.58;;;;;;;2.94;100.00;101271.50;6218172;23;20008;-62
2021/12/06 04:13:12;;;;;;;51.70;30.70;;;;;;;2.95;100.00;101277.53;6218333;23;20015;-62
2021/12/06 04:15:40;;;;;;;49.78;29.98;;;;;;;2.92;100.00;101283.53;6217874;23;20008;-62
2021/12/06 04:18:06;;;;;;;54.22;31.10;;;;;;;2.84;100.00;101273.81;6218555;23;20055;-62
2021/12/06 04:20:32;;;;;;;56.45;30.58;;;;;;;2.85;100.00;101281.63;6217758;23;20004;-63
2021/12/06 04:22:57;;;;;;;49.20;29.50;;;;;;;2.82;100.00;101276.38;6217828;23;20060;-62
2021/12/06 04:25:23;;;;;;;59.25;32.20;;;;;;;2.82;100.00;101275.50;6217792;23;20009;-62
2021/12/06 04:27:54;;;;;;;55.35;30.83;;;;;;;2.78;100.00;101274.53;6218093;23;20066;-62
2021/12/06 04:30:22;;;;;;;55.17;30.40;;;;;;;2.71;100.00;101267.47;6217918;23;20009;-62
2021/12/06 04:32:49;;;;;;;49.75;30.23;;;;;;;2.70;100.00;101276.06;6217828;23;20272;-62
2021/12/06 04:35:14;;;;;;;52.83;29.55;;;;;;;2.57;100.00;101274.88;6217637;23;20089;-62
2021/12/06 04:37:40;;;;;;;51.22;30.15;;;;;;;2.48;100.00;101272.03;6217762;23;20008;-61
2021/12/06 04:40:06;;;;;;;50.60;30.90;;;;;;;2.44;100.00;101289.16;6218143;23;20012;-62
2021/12/06 04:42:32;;;;;;;52.70;29.10;;;;;;;2.37;100.00;101283.81;6217610;23;20008;-62
2021/12/06 04:44:57;;;;;;;47.38;28.88;;;;;;;2.29;100.00;101282.72;6217490;23;20035;-62
2021/12/06 04:47:22;;;;;;;50.45;30.00;;;;;;;2.22;100.00;101286.00;6217434;23;20008;-61
2021/12/06 04:49:48;;;;;;;46.47;28.60;;;;;;;2.12;100.00;101284.84;6217381;23;20012;-62
2021/12/06 04:52:16;;;;;;;49.40;28.67;;;;;;;2.04;100.00;101287.22;6217509;23;20000;-61
2021/12/06 04:54:46;;;;;;;47.25;28.15;;;;;;;1.92;100.00;101275.66;6217250;23;20402;-62
2021/12/06 04:57:18;;;;;;;49.33;27.83;;;;;;;1.95;100.00;101301.56;6217471;23;20079;-61
2021/12/06 04:59:49;;;;;;;;;;;;;;;1.93;100.00;101306.66;6218097;23;20313;-61
2021/12/06 05:02:19;;;;;;;53.35;29.67;;;;;;;1.83;100.00;101304.66;6217334;23;19904;-62
2021/12/06 05:04:48;;;;;;;48.25;28.30;;;;;;;1.74;100.00;101307.84;6217522;23;20005;-61
2021/12/06 05:07:23;;;;;;;52.30;27.98;;;;;;;1.69;100.00;101309.44;6217476;23;20073;-62
2021/12/06 05:09:49;;;;;;;53.72;30.15;;;;;;;1.65;100.00;101304.13;6217617;23;20009;-61
2021/12/06 05:12:17;;;;;;;55.10;28.45;;;;;;;1.61;100.00;101299.69;6217507;23;20031;-61
2021/12/06 05:14:42;;;;;;;48.63;29.13;;;;;;;1.53;100.00;101312.38;6216821;23;20470;-62
2021/12/06 05:17:08;;;;;;;48.05;27.90;;;;;;;1.51;100.00;101318.31;6217572;23;20000;-61
2021/12/06 05:19:33;;;;;;;47.03;26.48;;;;;;;1.41;100.00;101317.13;6217310;23;20349;-61
2021/12/06 05:21:59;;;;;;;47.80;27.38;;;;;;;1.38;100.00;101322.22;6217320;23;20016;-62
2021/12/06 05:24:25;;;;;;;46.30;27.35;;;;;;;1.34;100.00;101315.22;6217359;23;20103;-61
2021/12/06 05:26:51;;;;;;;51.38;28.65;;;;;;;1.34;100.00;101334.13;6217377;23;20075;-62
2021/12/06 05:29:21;;;;;;;48.28;26.45;;;;;;;1.27;100.00;101328.72;6217323;23;20009;-61
2021/12/06 05:31:54;;;;;;;42.50;24.92;;;;;;;1.17;100.00;101335.31;6217451;23;20016;-61
2021/12/06 05:34:28;;;;;;;47.53;27.60;;;;;;;1.16;100.00;101330.97;6217393;23;20019;-62
2021/12/06 05:36:53;;;;;;;50.85;27.30;;;;;;;1.11;100.00;101329.94;6216900;23;20365;-61
2021/12/06 05:39:18;;;;;;;49.38;28.45;;;;;;;1.13;100.00;101332.56;6220050;23;20016;-62
2021/12/06 05:41:44;;;;;;;45.55;25.77;;;;;;;1.14;100.00;101327.47;6219235;23;20079;-62
2021/12/06 05:44:09;;;;;;;49.08;28.25;;;;;;;1.17;100.00;101321.53;6218861;23;20023;-62
2021/12/06 05:46:34;;;;;;;76.00;30.98;;;;;;;1.19;100.00;101305.28;6218850;23;20012;-62
2021/12/06 05:49:00;;;;;;;108.15;32.58;;;;;;;1.29;100.00;101314.19;6219334;23;20028;-61
2021/12/06 05:51:25;;;;;;;147.23;33.97;;;;;;;1.35;100.00;101324.69;6218819;23;20135;-62
2021/12/06 05:53:50;;;;;;;96.90;33.15;;;;;;;1.46;100.00;101325.91;6219435;23;20009;-61
2021/12/06 05:56:16;;;;;;;94.25;33.40;;;;;;;1.40;100.00;101310.22;6218882;23;20008;-62
2021/12/06 05:58:41;;;;;;;145.93;34.22;;;;;;;1.50;100.00;101320.00;6218833;23;20015;-62
2021/12/06 06:01:06;;;;;;;114.28;32.47;;;;;;;1.58;100.00;101325.38;6219472;23;20398;-62
2021/12/06 06:03:32;;;;;;;97.30;30.15;;;;;;;1.64;100.00;101330.75;6219251;23;20005;-62
2021/12/06 06:05:57;;;;;;;119.70;31.70;;;;;;;1.59;100.00;101332.31;6219608;23;20004;-63
2021/12/06 06:08:23;;;;;;;171.48;30.80;;;;;;;1.60;100.00;101342.66;6219064;23;20015;-62
2021/12/06 06:10:51;;;;;;;146.30;31.60;;;;;;;1.64;100.00;101347.09;6219239;23;20008;-62
2021/12/06 06:13:16;;;;;;;184.68;32.20;;;;;;;1.66;100.00;101354.88;6219072;23;20035;-62
2021/12/06 06:15:41;;;;;;;173.73;32.10;;;;;;;1.59;100.00;101353.81;6218984;23;20016;-62
2021/12/06 06:18:08;;;;;;;116.25;30.38;;;;;;;1.63;100.00;101352.22;6219012;23;20004;-62
2021/12/06 06:20:46;;;;;;;142.18;29.48;;;;;;;1.75;100.00;101370.63;6218918;23;20036;-61
2021/12/06 06:23:11;;;;;;;127.45;30.63;;;;;;;1.72;100.00;101361.13;6218813;23;20016;-62
2021/12/06 06:25:38;;;;;;;160.70;33.40;;;;;;;1.67;100.00;101362.69;6218558;23;20001;-62
2021/12/06 06:28:04;;;;;;;94.38;30.85;;;;;;;1.74;100.00;101367.19;6218792;23;20008;-62
2021/12/06 06:30:30;;;;;;;98.82;30.02;;;;;;;1.72;100.00;101366.28;6218593;23;20016;-62
2021/12/06 06:32:55;;;;;;;99.72;29.70;;;;;;;1.73;100.00;101369.75;6218993;23;20004;-62
2021/12/06 06:35:21;;;;;;;113.30;29.35;;;;;;;1.75;100.00;101373.22;6218710;23;20035;-61
2021/12/06 06:37:47;;;;;;;89.30;29.42;;;;;;;1.79;100.00;101363.88;6218280;23;20001;-65
2021/12/06 06:40:14;;;;;;;134.57;30.65;;;;;;;1.79;100.00;101369.03;6217961;23;20016;-65
2021/12/06 06:42:39;;;;;;;120.25;29.33;;;;;;;1.80;100.00;101351.00;6218708;23;20008;-65
2021/12/06 06:45:07;;;;;;;127.38;32.28;;;;;;;1.90;100.00;101370.25;6218161;23;20015;-64
2021/12/06 06:47:32;;;;;;;120.32;30.83;;;;;;;1.90;100.00;101359.94;6218304;23;20000;-65
2021/12/06 06:49:57;;;;;;;106.55;31.58;;;;;;;1.90;100.00;101357.34;6217511;23;20074;-64
2021/12/06 06:52:23;;;;;;;159.27;32.38;;;;;;;1.92;100.00;101369.44;6218049;23;20001;-65
2021/12/06 06:54:49;;;;;;;143.00;32.60;;;;;;;1.91;100.00;101359.94;6218034;23;20004;-67
2021/12/06 06:57:14;;;;;;;103.55;31.70;;;;;;;1.95;100.00;101359.22;6218387;23;20009;-64
2021/12/06 06:59:39;;;;;;;128.52;34.00;;;;;;;2.01;100.00;101366.28;6218174;23;20008;-65
2021/12/06 07:02:05;;;;;;;156.52;33.78;;;;;;;2.03;100.00;101362.03;6218232;23;20406;-66
2021/12/06 07:04:31;;;;;;;155.60;35.35;;;;;;;2.01;100.00;101376.59;6216590;23;20511;-65
2021/12/06 07:06:57;;;;;;;148.98;32.38;;;;;;;2.03;100.00;101365.50;6218127;23;20008;-65
2021/12/06 07:09:22;;;;;;;175.68;32.92;;;;;;;2.04;100.00;101363.78;6217991;23;20488;-66
2021/12/06 07:11:47;;;;;;;119.20;33.70;;;;;;;2.06;100.00;101369.88;6218026;23;20464;-65
2021/12/06 07:14:14;;;;;;;154.90;34.38;;;;;;;2.01;100.00;101364.56;6218139;23;20012;-63
2021/12/06 07:16:42;;;;;;;114.68;34.13;;;;;;;2.04;100.00;101374.97;6217842;23;20013;-65
2021/12/06 07:19:07;;;;;;;143.63;34.00;;;;;;;2.02;100.00;101379.22;6218417;23;20004;-66
2021/12/06 07:21:33;;;;;;;139.75;35.15;;;;;;;2.03;100.00;101380.97;6218156;23;20020;-66
2021/12/06 07:23:59;;;;;;;102.45;35.28;;;;;;;2.09;100.00;101385.41;6218308;23;20019;-64
2021/12/06 07:26:24;;;;;;;87.18;34.05;;;;;;;2.11;100.00;101388.94;6218165;23;20004;-66
2021/12/06 07:28:51;;;;;;;87.50;36.15;;;;;;;2.15;100.00;101393.34;6217959;23;20004;-64
2021/12/06 07:31:17;;;;;;;71.25;35.13;;;;;;;2.20;100.00;101398.66;6217961;23;20406;-65
2021/12/06 07:33:45;;;;;;;71.65;35.70;;;;;;;2.23;100.00;101396.19;6217858;23;20421;-64
2021/12/06 07:36:11;;;;;;;69.35;35.92;;;;;;;2.26;100.00;101404.00;6218145;23;20283;-62
2021/12/06 07:38:37;;;;;;;68.32;35.13;;;;;;;2.32;100.00;101406.75;6217603;23;20016;-62
2021/12/06 07:41:05;;;;;;;65.28;35.17;;;;;;;2.36;100.00;101406.91;6218730;23;20005;-62
2021/12/06 07:43:31;;;;;;;67.25;35.63;;;;;;;2.40;100.00;101413.91;6217717;23;20004;-62
2021/12/06 07:45:56;;;;;;;64.35;34.78;;;;;;;2.37;100.00;101395.75;6218508;23;20318;-62
2021/12/06 07:48:21;;;;;;;63.40;34.03;;;;;;;2.44;100.00;101401.94;6217684;23;20008;-62
2021/12/06 07:50:47;;;;;;;66.53;34.75;;;;;;;2.43;100.00;101380.41;6218512;23;20001;-60
2021/12/06 07:53:12;;;;;;;71.88;35.95;;;;;;;2.45;100.00;101386.47;6218028;23;20083;-61
2021/12/06 07:55:38;;;;;;;77.13;37.95;;;;;;;2.48;100.00;101387.41;6217865;23;20016;-61
2021/12/06 07:58:06;;;;;;;80.10;38.30;;;;;;;2.51;100.00;101377.16;6216632;23;20423;-62
2021/12/06 08:00:35;;;;;;;82.25;39.72;;;;;;;2.54;100.00;101377.25;6217228;23;20008;-62
2021/12/06 08:03:00;;;;;;;82.32;38.22;;;;;;;2.55;100.00;101364.38;6216970;23;20425;-62
2021/12/06 08:05:30;;;;;;;86.88;39.65;;;;;;;2.58;100.00;101368.75;6216313;23;20004;-62
2021/12/06 08:08:11;;;;;;;90.05;41.60;;;;;;;2.61;100.00;101363.66;6216512;23;20012;-62
2021/12/06 08:10:44;;;;;;;91.22;42.17;;;;;;;2.60;100.00;101367.09;6216942;23;20005;-63
2021/12/06 08:13:16;;;;;;;90.32;42.25;;;;;;;2.60;100.00;101367.94;6217430;23;20004;-62
2021/12/06 08:15:42;;;;;;;92.90;42.58;;;;;;;2.58;100.00;101363.59;6217041;23;20015;-62
2021/12/06 08:18:07;;;;;;;93.03;42.80;;;;;;;2.54;100.00;101369.50;6217384;23;20004;-61
2021/12/06 08:20:34;;;;;;;96.47;43.03;;;;;;;2.60;100.00;101367.09;6216947;23;20046;-62
2021/12/06 08:22:59;;;;;;;97.53;42.50;;;;;;;2.59;100.00;101371.41;6217610;23;20004;-62
2021/12/06 08:25:25;;;;;;;92.80;42.63;;;;;;;2.65;100.00;101368.94;6217374;23;20070;-61
2021/12/06 08:27:50;;;;;;;91.55;42.92;;;;;;;2.60;100.00;101359.34;6217706;23;20341;-63
2021/12/06 08:30:21;;;;;;;86.53;39.92;;;;;;;2.65;100.00;101371.53;6217407;23;20005;-62
2021/12/06 08:32:48;;;;;;;89.50;42.45;;;;;;;2.72;100.00;101372.59;6217098;23;20416;-63
2021/12/06 08:35:14;;;;;;;84.97;41.20;;;;;;;2.66;100.00;101368.13;6216897;23;20833;-62
2021/12/06 08:37:39;;;;;;;86.35;42.03;;;;;;;2.65;100.00;101381.88;6217420;23;20009;-62
2021/12/06 08:40:06;;;;;;;88.72;42.17;;;;;;;2.73;100.00;101384.69;6217820;23;20103;-62
2021/12/06 08:42:31;;;;;;;85.18;40.95;;;;;;;2.68;100.00;101388.84;6216777;23;20383;-62
2021/12/06 08:44:57;;;;;;;87.40;41.78;;;;;;;2.64;100.00;101395.63;6216923;23;20113;-62
2021/12/06 08:47:24;;;;;;;88.35;41.60;;;;;;;2.65;100.00;101412.88;6216677;23;20008;-61
2021/12/06 08:49:50;;;;;;;83.53;40.75;;;;;;;2.69;100.00;101414.72;6216513;23;20404;-62
2021/12/06 08:52:16;;;;;;;92.57;42.72;;;;;;;2.67;100.00;101403.47;6217364;23;20035;-61
2021/12/06 08:54:42;;;;;;;86.43;41.63;;;;;;;2.71;100.00;101412.19;6216815;23;20005;-62
2021/12/06 08:57:07;;;;;;;92.82;40.20;;;;;;;2.68;100.00;101406.91;6217461;23;20007;-61
2021/12/06 08:59:32;;;;;;;84.50;40.28;;;;;;;2.75;100.00;101398.50;6217112;23;20001;-61
2021/12/06 09:01:58;;;;;;;82.28;40.08;;;;;;;2.78;100.00;101420.13;6217318;23;20016;-61
2021/12/06 09:04:33;;;;;;;78.25;36.10;;;;;;;2.79;100.00;101421.00;6216872;23;20342;-61
2021/12/06 09:07:01;;;;;;;78.38;35.28;;;;;;;2.86;100.00;101416.88;6217011;23;20040;-61
2021/12/06 09:09:27;;;;;;;81.85;37.15;;;;;;;2.76;100.00;101419.22;6216818;23;20371;-61
2021/12/06 09:11:55;;;;;;;77.38;36.60;;;;;;;2.82;100.00;101420.22;6216749;23;20105;-61
2021/12/06 09:14:21;;;;;;;75.97;36.20;;;;;;;2.81;100.00;101421.91;6217210;23;20012;-62
2021/12/06 09:16:47;;;;;;;78.93;36.80;;;;;;;2.80;100.00;101422.75;6216579;23;20004;-62
2021/12/06 09:19:14;;;;;;;78.03;35.47;;;;;;;2.80;100.00;101417.59;6217254;23;20457;-62
2021/12/06 09:21:41;;;;;;;83.78;37.17;;;;;;;2.74;100.00;101418.31;6217056;23;20016;-61
2021/12/06 09:24:09;;;;;;;83.78;37.67;;;;;;;2.80;100.00;101420.16;6216637;23;20390;-61
2021/12/06 09:26:36;;;;;;;87.22;38.00;;;;;;;2.80;100.00;101409.81;6217456;23;20326;-61
2021/12/06 09:29:03;;;;;;;89.00;36.42;;;;;;;2.80;100.00;101415.00;6216960;23;20271;-61
2021/12/06 09:31:28;;;;;;;81.57;36.22;;;;;;;2.80;100.00;101421.03;6216872;23;20008;-62
2021/12/06 09:33:53;;;;;;;85.22;37.60;;;;;;;2.83;100.00;101428.00;6217314;23;20009;-61
2021/12/06 09:36:20;;;;;;;85.95;38.67;;;;;;;2.72;100.00;101411.34;6217116;23;20000;-61
2021/12/06 09:38:46;;;;;;;89.97;38.83;;;;;;;2.73;100.00;101411.41;6217299;23;20027;-62
2021/12/06 09:41:20;;;;;;;91.55;39.10;;;;;;;2.77;100.00;101425.28;6217175;23;20080;-61
2021/12/06 09:43:46;;;;;;;90.70;37.10;;;;;;;2.83;100.00;101422.84;6216943;23;20178;-61
2021/12/06 09:46:12;;;;;;;82.63;36.42;;;;;;;2.89;100.00;101419.56;6216734;23;20029;-62
2021/12/06 09:48:40;;;;;;;89.60;38.03;;;;;;;2.85;100.00;101417.72;6216537;23;20008;-61
2021/12/06 09:51:09;;;;;;;107.22;40.10;;;;;;;2.80;100.00;101415.88;6216829;23;20001;-61
2021/12/06 09:53:38;;;;;;;100.68;39.50;;;;;;;2.86;100.00;101420.34;6217293;23;20019;-61
2021/12/06 09:56:08;;;;;;;122.78;41.53;;;;;;;2.82;100.00;101427.97;6217236;23;20074;-61
2021/12/06 09:58:35;;;;;;;109.50;35.67;;;;;;;2.93;100.00;101419.69;6216236;23;20023;-62
2021/12/06 10:01:07;;;;;;;118.40;37.10;;;;;;;2.90;100.00;101419.59;6217136;23;20032;-62
2021/12/06 10:03:33;;;;;;;118.65;36.63;;;;;;;2.87;100.00;101424.69;6217217;23;20012;-62
2021/12/06 10:06:02;;;;;;;127.82;41.08;;;;;;;2.84;100.00;101424.59;6217790;23;20015;-61
2021/12/06 10:08:34;;;;;;;120.28;39.58;;;;;;;2.87;100.00;101414.34;6217023;23;20005;-61
2021/12/06 10:10:59;;;;;;;103.40;30.87;;;;;;;2.99;100.00;101421.53;6216707;23;20023;-62
2021/12/06 10:13:25;;;;;;;106.93;34.90;;;;;;;2.90;100.00;101411.84;6216707;23;20008;-61
2021/12/06 10:15:52;;;;;;;109.57;35.63;;;;;;;2.86;100.00;101404.84;6217101;23;20009;-61
2021/12/06 10:18:19;;;;;;;107.78;35.70;;;;;;;2.80;100.00;101392.63;6217141;23;20005;-61
2021/12/06 10:20:46;;;;;;;113.13;34.97;;;;;;;2.87;100.00;101400.53;6217003;23;20008;-61
2021/12/06 10:23:12;;;;;;;111.45;36.90;;;;;;;2.83;100.00;101393.53;6217440;23;20087;-62
2021/12/06 10:25:43;;;;;;;120.25;35.60;;;;;;;2.83;100.00;101380.63;6218490;23;20017;-61
2021/12/06 10:28:09;;;;;;;111.60;35.58;;;;;;;2.80;100.00;101377.09;6218753;23;20009;-60
2021/12/06 10:30:38;;;;;;;108.07;35.88;;;;;;;2.84;100.00;101372.91;6218375;23;20039;-61
2021/12/06 10:33:08;;;;;;;114.35;37.67;;;;;;;2.89;100.00;101385.97;6218966;23;20062;-61
2021/12/06 10:35:38;;;;;;;101.07;28.80;;;;;;;2.86;100.00;101379.00;6218440;23;20024;-61
2021/12/06 10:38:03;;;;;;;112.82;37.13;;;;;;;2.80;100.00;101387.44;6218319;23;20036;-61
2021/12/06 10:40:32;;;;;;;106.03;37.75;;;;;;;2.81;100.00;101383.16;6218178;23;20019;-61
2021/12/06 10:43:01;;;;;;;96.97;33.08;;;;;;;2.81;100.00;101385.75;6217747;23;20413;-61
2021/12/06 10:45:33;;;;;;;93.43;33.95;;;;;;;2.83;100.00;101381.50;6218441;23;20019;-64
2021/12/06 10:48:23;;;;;;;88.22;33.05;;;;;;;2.83;100.00;101370.28;6218294;23;20087;-61
2021/12/06 10:50:55;;;;;;;81.43;32.17;;;;;;;2.85;100.00;101372.06;6218309;23;20012;-61
2021/12/06 10:53:28;;;;;;;78.53;30.38;;;;;;;2.79;100.00;101357.25;6218597;23;20005;-60
2021/12/06 10:55:55;;;;;;;75.03;30.27;;;;;;;2.88;100.00;101348.03;6218986;23;20017;-61
2021/12/06 10:58:25;;;;;;;68.40;28.02;;;;;;;2.92;100.00;101340.38;6218697;23;20379;-61
2021/12/06 11:01:08;;;;;;;66.63;27.52;;;;;;;3.07;100.00;101322.69;6218325;23;20004;-61
2021/12/06 11:03:45;;;;;;;69.80;28.35;;;;;;;2.90;100.00;101307.59;6218583;23;20067;-61
2021/12/06 11:06:18;;;;;;;66.25;28.88;;;;;;;2.89;100.00;101317.03;6218750;23;20359;-61
2021/12/06 11:08:48;;;;;;;58.83;24.45;;;;;;;2.97;100.00;101328.44;6218273;23;20008;-61
2021/12/06 11:11:19;;;;;;;59.03;25.02;;;;;;;2.91;100.00;101333.47;6218692;23;20039;-61
2021/12/06 11:13:48;;;;;;;49.42;21.27;;;;;;;2.98;100.00;101330.19;6217985;23;20005;-61
2021/12/06 11:16:17;;;;;;;48.33;22.90;;;;;;;2.80;100.00;101321.97;6218039;23;20417;-61
2021/12/06 11:18:55;;;;;;;44.35;19.63;;;;;;;2.78;100.00;101323.63;6218363;23;20005;-61
2021/12/06 11:21:20;;;;;;;39.42;17.10;;;;;;;2.73;100.00;101320.94;6217244;23;20012;-61